Tiempo atmosférico en la estación meteorológica de Villafranca De Los Barros, Badajoz (430 m.)



Fecha
DESCASC
Temp. máxima en grados centígrados (hora)
DESCASC
Temp. mínima en grados centígrados (hora)
DESCASC
Temp. media en grados centígrados
DESCASC
Racha de viento máxima en m/sg (hora)
DESCASC
Velocidad máxima media en intervalos de 10 minutos(hora)
DESCASC
Precipitaciones diarias en mm
DESCASC
Precipitaciones de 00:00 a 06:00 en mm
DESCASC
Precipitaciones de 06:00 a 12:00 en mm
DESCASC
Precipitaciones de 12:00 a 18:00 en mm
DESCASC
Precipitaciones de 18:00 a 24:00 en mm
DESCASC
22-08-2019 35.4 (18:00) 18.1 (07:50) 26.8 8.89 (15:10) 5.28 (20:20) 0 0 0 0 0
21-08-2019 33.9 (17:20) 14.9 (08:20) 24.4 8.06 (16:20) 4.44 (19:10) 0 0 0 0 0
20-08-2019 32.2 (18:10) 13.7 (06:20) 23 6.94 (01:50) 4.17 (00:20) 0 0 0 0 0
19-08-2019 32.1 (18:00) 15.9 (08:10) 24 11.39 (23:00) 7.5 (22:50) 0 0 0 0 0
18-08-2019 33 (17:00) 14.1 (00:00) 23.6 10.83 (15:50) 6.39 (18:30) 0 0 0 0 0
17-08-2019 38.3 (17:30) 13.4 (00:00) 25.8 10 (19:50) 6.67 (20:10) 0 0 0 0 0
16-08-2019 37.3 (16:50) 16.6 (00:00) 26.9 9.72 (18:20) 5.83 (19:20) 0 0 0 0 0
15-08-2019 36.8 (16:50) 15.9 (00:00) 26.3 8.61 (23:40) 5.28 (23:40) 0 0 0 0 0
14-08-2019 35 (17:20) 11.9 (00:00) 23.4 7.78 (16:50) 4.44 (23:30) 0 0 0 0 0
13-08-2019 32.7 (17:40) 13.4 (00:00) 23.1 6.39 (15:20) 3.33 (16:30) 0 0 0 0 0
12-08-2019 28.7 (18:40) 12.7 (00:00) 20.7 8.61 (00:10) 5.56 (00:20) 0 0 0 0 0
11-08-2019 27.3 (17:00) 14.5 (00:00) 20.9 11.39 (15:10) 6.67 (00:50) 0 0 0 0 0
10-08-2019 31.3 (17:50) 14.4 (00:00) 22.8 10 (21:50) 6.39 (23:40) 0 0 0 0 0
09-08-2019 30.9 (15:40) 17.8 (00:00) 24.3 11.11 (17:00) 7.22 (16:30) 0 0 0 0 0
08-08-2019 35.4 (17:50) 15.1 (00:00) 25.3 12.78 (16:10) 7.5 (23:20) 0 0 0 0 0
07-08-2019 26.5 (14:30) 16.4 (00:00) 21.4 7.22 (00:10) 5 (00:10) 0 0 0 0 0
06-08-2019 35.7 (17:40) 14.7 (00:00) 25.2 11.39 (18:40) 6.67 (19:30) 0 0 0 0 0
05-08-2019 35.6 (16:20) 12.4 (00:00) 24 9.72 (16:40) 5.83 (18:50) 0 0 0 0 0
04-08-2019 34.6 (17:20) 13.2 (00:00) 23.9 8.33 (20:50) 5.83 (23:00) 0 0 0 0 0
03-08-2019 35.8 (16:50) 14.1 (00:00) 24.9 10.28 (20:10) 6.11 (18:20) 0 0 0 0 0
02-08-2019 34.3 (17:40) 10.8 (00:00) 22.5 8.61 (17:50) 5.28 (00:20) 0 0 0 0 0
01-08-2019 34.1 (17:20) 14.9 (00:00) 24.5 9.17 (16:20) 5.56 (23:50) 0 0 0 0 0
31-07-2019 35 (18:10) 12.3 (00:00) 23.7 8.61 (21:40) 5.28 (22:10) 0 0 0 0 0
30-07-2019 31.1 (17:50) 12.4 (00:00) 21.8 9.44 (15:00) 6.11 (00:30) 0 0 0 0 0
29-07-2019 30.1 (17:10) 12.4 (00:00) 21.3 10.83 (17:20) 6.39 (18:30) 0 0 0 0 0
28-07-2019 31.1 (19:00) 12.5 (00:00) 21.8 7.22 (23:10) 4.72 (23:59) 0 0 0 0 0
27-07-2019 23.9 (19:50) 14.9 (00:00) 19.4 12.22 (00:40) 7.5 (01:00) 0 0 0 0 0
26-07-2019 28.7 (17:50) 15.5 (00:00) 22.1 12.78 (18:10) 7.78 (18:10) 0 0 0 0 0

Gráficas

Temp. máximas Temp. mínimas Temp. medias Precipitaciones Rachas de viento máximas Velocidades máximas media en intervalos de 10 minutos

Datos horarios

Fecha y hora oficial Temperatura (ºC) Velocidad del viento (km/h) Dirección del viento Racha (km/h) Dirección de racha Precipitación (mm) Presión (hPa) Tendencia (hPa) Humedad (%)
2019-08-24 23:00:00 23.7 3 Sur 5 Sur 0 -- -- 26
2019-08-24 22:00:00 27.9 0 Calma 8 Nordeste 0 -- -- 25
2019-08-24 21:00:00 32.6 6 Nordeste 17 Norte 0 -- -- 20
2019-08-24 20:00:00 34 13 Norte 23 Norte 0 -- -- 20
2019-08-24 19:00:00 35.1 6 Norte 23 Noroeste 0 -- -- 22
2019-08-24 18:00:00 36.3 5 Oeste 23 Noroeste 0 -- -- 21
2019-08-24 17:00:00 36.3 13 Norte 20 Norte 0 -- -- 21
2019-08-24 16:00:00 35.8 10 Norte 21 Norte 0 -- -- 21
2019-08-24 15:00:00 35.9 9 Sudeste 24 Este 0 -- -- 21
2019-08-24 14:00:00 34.7 10 Este 21 Este 0 -- -- 24
2019-08-24 13:00:00 33.6 5 Este 17 Este 0 -- -- 28
2019-08-24 12:00:00 31.7 5 Sur 19 Sudeste 0 -- -- 32
2019-08-24 11:00:00 28.7 6 Sudeste 15 Sudeste 0 -- -- 38
2019-08-24 10:00:00 25.1 9 Sudeste 13 Sudeste 0 -- -- 46
2019-08-24 09:00:00 22 7 Sudeste 15 Sudeste 0 -- -- 50
2019-08-24 08:00:00 20.5 5 Sudeste 11 Sur 0 -- -- 52
2019-08-24 07:00:00 21.7 7 Sur 21 Sur 0 -- -- 50
2019-08-24 06:00:00 22.6 12 Sur 20 Sudeste 0 -- -- 44
2019-08-24 05:00:00 22.9 12 Sudeste 18 Sudeste 0 -- -- 40
2019-08-24 04:00:00 24.6 9 Sur 26 Este 0 -- -- 37
2019-08-24 03:00:00 25.2 9 Sur 15 Sudoeste 0 -- -- 36
2019-08-24 02:00:00 25.9 8 Sur 13 Sur 0 -- -- 34
2019-08-24 01:00:00 27.2 8 Sur 12 Sur 0 -- -- 32
2019-08-24 00:00:00 26.8 8 Sudeste 15 Sudeste 0 -- -- 33
2019-08-23 23:00:00 25.7 2 Sudeste 6 Nordeste 0 -- -- 30
2019-08-23 22:00:00 30.3 5 Nordeste 13 Nordeste 0 -- -- 28
2019-08-23 21:00:00 32.8 10 Nordeste 24 Nordeste 0 -- -- 25
2019-08-23 20:00:00 34.1 17 Nordeste 33 Norte 0 -- -- 25
2019-08-23 19:00:00 34.8 14 Norte 24 Norte 0 -- -- 27
2019-08-23 18:00:00 34.7 17 Nordeste 41 Sudeste 0 -- -- 28
2019-08-23 17:00:00 36.1 10 Sudeste 24 Sudeste 0 -- -- 22
2019-08-23 16:00:00 35.8 9 Este 32 Este 0 -- -- 23
2019-08-23 15:00:00 34.2 13 Este 28 Este 0 -- -- 27
2019-08-23 14:00:00 33.2 14 Sudeste 28 Nordeste 0 -- -- 33
2019-08-23 13:00:00 32 13 Este 28 Sudeste 0 -- -- 37
2019-08-23 12:00:00 30.2 17 Sudeste 28 Sudeste 0 -- -- 42
2019-08-23 11:00:00 28.2 14 Sudeste 27 Sudeste 0 -- -- 45
2019-08-23 10:00:00 25.9 16 Sudeste 23 Sudeste 0 -- -- 48
2019-08-23 09:00:00 22.9 13 Sudeste 19 Sudeste 0 -- -- 53
2019-08-23 08:00:00 21.3 9 Sudeste 15 Sudeste 0 -- -- 57
2019-08-23 07:00:00 21.9 9 Sudeste 17 Sudeste 0 -- -- 59
2019-08-23 06:00:00 21.8 12 Sudeste 19 Sudeste 0 -- -- 61
2019-08-23 05:00:00 22.6 9 Sudeste 12 Sudeste 0 -- -- 58
2019-08-23 04:00:00 23.8 7 Sudeste 14 Sur 0 -- -- 53
2019-08-23 03:00:00 25.3 8 Sudeste 21 Sur 0 -- -- 51
2019-08-23 02:00:00 26 12 Sudeste 17 Sudeste 0 -- -- 47
2019-08-23 01:00:00 25.9 10 Sur 12 Sur 0 -- -- 43
2019-08-23 00:00:00 27.4 5 Sudoeste 12 Sudoeste 0 -- -- 39
2019-08-22 23:00:00 29.9 6 Sudeste 20 Sudeste 0 -- -- 27
2019-08-22 22:00:00 30.9 8 Norte 23 Nordeste 0 -- -- 26
2019-08-22 21:00:00 32.6 15 Norte 31 Norte 0 -- -- 25
2019-08-22 20:00:00 34.7 8 Este 21 Este 0 -- -- 23
2019-08-22 19:00:00 35 10 Nordeste 28 Nordeste 0 -- -- 22
2019-08-22 18:00:00 35.4 11 Este 28 Este 0 -- -- 23
2019-08-22 17:00:00 34.7 9 Nordeste 29 Nordeste 0 -- -- 25
2019-08-22 16:00:00 33.8 13 Este 32 Este 0 -- -- 27
2019-08-22 15:00:00 33.9 13 Este 29 Sudeste 0 -- -- 31
2019-08-22 14:00:00 32.6 8 Este 26 Este 0 -- -- 36
2019-08-22 13:00:00 31 12 Este 22 Este 0 -- -- 41
2019-08-22 12:00:00 29.5 8 Este 22 Este 0 -- -- 43
2019-08-22 11:00:00 27.5 8 Este 15 Sudeste 0 -- -- 47
2019-08-22 10:00:00 24.8 10 Sudeste 19 Sudeste 0 -- -- 57
2019-08-22 09:00:00 22.1 8 Sudeste 14 Sudeste 0 -- -- 61
2019-08-22 08:00:00 18.1 7 Sudeste 10 Sudeste 0 -- -- 54
2019-08-22 07:00:00 19 5 Este 13 Sudeste 0 -- -- 45
2019-08-22 06:00:00 20.3 5 Este 15 Sudeste 0 -- -- 42
2019-08-22 05:00:00 19 6 Este 10 Sudeste 0 -- -- 36
2019-08-22 04:00:00 19.2 3 Sudoeste 10 Sur 0 -- -- 34
2019-08-22 03:00:00 19.2 6 Sur 13 Sudeste 0 -- -- 32
2019-08-22 02:00:00 18.7 4 Sur 7 Sur 0 -- -- 33
2019-08-22 01:00:00 19.4 4 Sur 6 Sur 0 -- -- 31
2019-08-22 00:00:00 20.9 4 Sudeste 5 Sudeste 0 -- -- 30
2019-08-21 23:00:00 22.3 4 Sur 7 Sudoeste 0 -- -- 30
2019-08-21 22:00:00 26.8 0 Calma 11 Norte 0 -- -- 27
2019-08-21 21:00:00 31.3 7 Norte 13 Norte 0 -- -- 22
2019-08-21 20:00:00 32.6 9 Norte 25 Norte 0 -- -- 22
2019-08-21 19:00:00 33.4 13 Norte 27 Norte 0 -- -- 21
2019-08-21 18:00:00 33.6 8 Norte 20 Noroeste 0 -- -- 22
2019-08-21 17:00:00 33.4 15 Oeste 29 Oeste 0 -- -- 22
2019-08-21 16:00:00 33.5 6 Sudoeste 26 Noroeste 0 -- -- 22
2019-08-21 15:00:00 33 9 Oeste 25 Oeste 0 -- -- 24
2019-08-21 14:00:00 32 9 Noroeste 25 Noroeste 0 -- -- 26
2019-08-21 13:00:00 30.8 8 Oeste 18 Noroeste 0 -- -- 28
2019-08-21 12:00:00 29.3 10 Oeste 20 Noroeste 0 -- -- 30
2019-08-21 11:00:00 27.6 10 Oeste 19 Sudoeste 0 -- -- 31
2019-08-21 10:00:00 25 13 Sur 21 Sur 0 -- -- 33
2019-08-21 09:00:00 20 9 Sudeste 14 Sudeste 0 -- -- 39
2019-08-21 08:00:00 15.3 0 Calma 8 Sudeste 0 -- -- 46
2019-08-21 07:00:00 17.1 7 Este 10 Este 0 -- -- 41
2019-08-21 06:00:00 17.2 9 Sudeste 10 Sur 0 -- -- 42
2019-08-21 05:00:00 15.7 8 Sur 12 Sudeste 0 -- -- 44
2019-08-21 04:00:00 15.8 5 Sur 8 Sur 0 -- -- 39
2019-08-21 03:00:00 16.4 5 Sur 7 Sur 0 -- -- 39
2019-08-21 02:00:00 17.6 2 Sudeste 6 Sur 0 -- -- 36
2019-08-21 01:00:00 17.9 3 Sur 8 Sur 0 -- -- 31
2019-08-21 00:00:00 18.3 6 Sur 9 Sur 0 -- -- 29
2019-08-20 23:00:00 20.3 6 Sur 8 Sur 0 -- -- 28
2019-08-20 22:00:00 23.7 0 Calma 5 Noroeste 0 -- -- 29
2019-08-20 21:00:00 30.6 5 Noroeste 11 Norte 0 -- -- 22
2019-08-20 20:00:00 31.7 7 Norte 15 Norte 0 -- -- 21
2019-08-20 19:00:00 31.8 5 Nordeste 17 Nordeste 0 -- -- 21
2019-08-20 18:00:00 32 9 Noroeste 23 Norte 0 -- -- 21
2019-08-20 17:00:00 31.6 7 Noroeste 19 Nordeste 0 -- -- 23
2019-08-20 16:00:00 30.8 9 Norte 23 Norte 0 -- -- 23
2019-08-20 15:00:00 28.9 7 Noroeste 18 Norte 0 -- -- 32
2019-08-20 14:00:00 27.5 7 Norte 18 Norte 0 -- -- 38
2019-08-20 13:00:00 25.6 7 Noroeste 17 Noroeste 0 -- -- 43
2019-08-20 12:00:00 22.9 7 Norte 13 Noroeste 0 -- -- 48
2019-08-20 11:00:00 20.5 6 Oeste 12 Oeste 0 -- -- 52
2019-08-20 10:00:00 18.1 6 Oeste 10 Oeste 0 -- -- 59
2019-08-20 09:00:00 15.9 6 Oeste 12 Oeste 0 -- -- 67
2019-08-20 08:00:00 14.6 7 Oeste 12 Oeste 0 -- -- 68
2019-08-20 07:00:00 15.5 5 Noroeste 13 Oeste 0 -- -- 64
2019-08-20 06:00:00 14.4 0 Calma 8 Norte 0 -- -- 58
2019-08-20 05:00:00 16.3 5 Norte 9 Oeste 0 -- -- 51
2019-08-20 04:00:00 16.3 8 Oeste 11 Oeste 0 -- -- 48
2019-08-20 03:00:00 17.9 4 Oeste 14 Oeste 0 -- -- 48
2019-08-20 02:00:00 19.5 12 Oeste 25 Oeste 0 -- -- 46
2019-08-20 01:00:00 20.4 10 Oeste 23 Noroeste 0 -- -- 41
2019-08-20 00:00:00 21.6 15 Oeste 30 Noroeste 0 -- -- 37
2019-08-19 23:00:00 23.1 25 Noroeste 41 Noroeste 0 -- -- 40
2019-08-19 22:00:00 26.3 11 Noroeste 25 Noroeste 0 -- -- 22
2019-08-19 21:00:00 28.2 16 Noroeste 30 Noroeste 0 -- -- 20
2019-08-19 20:00:00 30.3 19 Oeste 33 Noroeste 0 -- -- 20
2019-08-19 19:00:00 31.8 20 Oeste 34 Noroeste 0 -- -- 19
2019-08-19 18:00:00 32.1 14 Noroeste 27 Noroeste 0 -- -- 19
2019-08-19 17:00:00 31.7 18 Noroeste 33 Noroeste 0 -- -- 20
2019-08-19 16:00:00 31.2 14 Noroeste 28 Oeste 0 -- -- 20
2019-08-19 15:00:00 30.6 16 Noroeste 29 Noroeste 0 -- -- 27
2019-08-19 14:00:00 28.9 7 Norte 19 Oeste 0 -- -- 29
2019-08-19 13:00:00 28 13 Noroeste 21 Noroeste 0 -- -- 27
2019-08-19 12:00:00 25.8 7 Noroeste 17 Noroeste 0 -- -- 39
2019-08-19 11:00:00 23.5 4 Sudoeste 14 Sur 0 -- -- 45
2019-08-19 10:00:00 20.1 3 Sudeste 8 Noroeste 0 -- -- 64
2019-08-19 09:00:00 17.3 3 Oeste 15 Noroeste 0 -- -- 71
2019-08-19 08:00:00 16 0 Calma 10 Noroeste 0 -- -- 75
2019-08-19 07:00:00 16.9 3 Noroeste 17 Noroeste 0 -- -- 76
2019-08-19 06:00:00 18.5 7 Oeste 19 Oeste 0 -- -- 74
2019-08-19 05:00:00 19.3 14 Oeste 22 Oeste 0 -- -- 74
2019-08-19 04:00:00 20.2 15 Oeste 24 Oeste 0 -- -- 74
2019-08-19 03:00:00 20.9 11 Oeste 20 Noroeste 0 -- -- 73
2019-08-19 02:00:00 21.9 13 Noroeste 31 Noroeste 0 -- -- 69
2019-08-19 01:00:00 23 18 Noroeste 32 Oeste 0 -- -- 66
2019-08-19 00:00:00 24.7 18 Noroeste 34 Noroeste 0 -- -- 62
2019-08-18 23:00:00 26.5 16 Noroeste 28 Noroeste 0 -- -- 53
2019-08-18 22:00:00 28.3 15 Noroeste 25 Oeste 0 -- -- 41
2019-08-18 21:00:00 29.7 16 Noroeste 31 Oeste 0 -- -- 37
2019-08-18 20:00:00 31.2 18 Noroeste 36 Norte 0 -- -- 32
2019-08-18 19:00:00 32.1 20 Noroeste 37 Noroeste 0 -- -- 29
2019-08-18 18:00:00 32.7 21 Noroeste 37 Oeste 0 -- -- 28
2019-08-18 17:00:00 33 19 Noroeste 33 Oeste 0 -- -- 28
2019-08-18 16:00:00 32.6 18 Noroeste 39 Oeste 0 -- -- 27
2019-08-18 15:00:00 31.4 16 Noroeste 33 Oeste 0 -- -- 28
2019-08-18 14:00:00 30.5 14 Oeste 27 Oeste 0 -- -- 27
2019-08-18 13:00:00 28.4 15 Noroeste 23 Oeste 0 -- -- 35
2019-08-18 12:00:00 26.2 12 Noroeste 20 Oeste 0 -- -- 42
2019-08-18 11:00:00 24.1 9 Noroeste 18 Noroeste 0 -- -- 50
2019-08-18 10:00:00 21.6 3 Oeste 12 Oeste 0 -- -- 57
2019-08-18 09:00:00 18.9 6 Oeste 12 Oeste 0 -- -- 68
2019-08-18 08:00:00 14.3 6 Norte 9 Norte 0 -- -- 63
2019-08-18 07:00:00 15.3 2 Norte 5 Norte 0 -- -- 55
2019-08-18 06:00:00 16.4 3 Sur 6 Sur 0 -- -- 58
2019-08-18 05:00:00 17.6 4 Sur 6 Sur 0 -- -- 61
2019-08-18 04:00:00 19 5 Sur 8 Sur 0 -- -- 54
2019-08-18 03:00:00 21.1 5 Sudoeste 14 Oeste 0 -- -- 53
2019-08-18 02:00:00 24.1 12 Oeste 19 Oeste 0 -- -- 51
2019-08-18 01:00:00 26 10 Noroeste 29 Noroeste 0 -- -- 47
2019-08-18 00:00:00 27.6 19 Oeste 30 Oeste 0 -- -- 37
2019-08-17 23:00:00 28.6 12 Oeste 18 Oeste 0 -- -- 24
2019-08-17 22:00:00 30.5 12 Oeste 25 Oeste 0 -- -- 22
2019-08-17 21:00:00 33.5 18 Oeste 35 Oeste 0 -- -- 14
2019-08-17 20:00:00 35.7 20 Oeste 36 Noroeste 0 -- -- 16
2019-08-17 19:00:00 37.5 16 Oeste 29 Sudoeste 0 -- -- 20
2019-08-17 18:00:00 38.2 14 Oeste 27 Oeste 0 -- -- 20
2019-08-17 17:00:00 37.9 17 Oeste 31 Noroeste 0 -- -- 19
2019-08-17 16:00:00 37.8 13 Sudoeste 34 Oeste 0 -- -- 20
2019-08-17 15:00:00 37.1 15 Sudoeste 32 Sudoeste 0 -- -- 21
2019-08-17 14:00:00 36.2 15 Sudoeste 25 Oeste 0 -- -- 22
2019-08-17 13:00:00 33.2 8 Oeste 18 Noroeste 0 -- -- 26
2019-08-17 12:00:00 30.1 3 Norte 10 Este 0 -- -- 32
2019-08-17 11:00:00 26.6 3 Este 9 Sudeste 0 -- -- 39
2019-08-17 10:00:00 23.3 5 Este 9 Sudeste 0 -- -- 44
2019-08-17 09:00:00 18 0 Calma 2 Sur 0 -- -- 64
2019-08-17 08:00:00 13.4 0 Calma 6 Sur 0 -- -- 57
2019-08-17 07:00:00 14 4 Sur 5 Sur 0 -- -- 49
2019-08-17 06:00:00 15.1 0 Calma 5 Sur 0 -- -- 53
2019-08-17 05:00:00 16.4 4 Sur 6 Sur 0 -- -- 45
2019-08-17 04:00:00 17.6 3 Sur 8 Sur 0 -- -- 46
2019-08-17 03:00:00 19.3 3 Sudeste 5 Sudeste 0 -- -- 43
2019-08-17 02:00:00 23.4 0 Calma 9 Oeste 0 -- -- 39
2019-08-17 01:00:00 25.5 6 Oeste 22 Oeste 0 -- -- 35
2019-08-17 00:00:00 27.7 16 Oeste 24 Oeste 0 -- -- 32
2019-08-16 23:00:00 29.7 13 Noroeste 25 Noroeste 0 -- -- 30
2019-08-16 22:00:00 31.7 11 Noroeste 24 Noroeste 0 -- -- 25
2019-08-16 21:00:00 34.2 17 Noroeste 27 Oeste 0 -- -- 26
2019-08-16 20:00:00 36 19 Noroeste 33 Noroeste 0 -- -- 23
2019-08-16 19:00:00 36.9 16 Noroeste 35 Noroeste 0 -- -- 23
2019-08-16 18:00:00 37.1 17 Noroeste 28 Noroeste 0 -- -- 24
2019-08-16 17:00:00 37.2 12 Oeste 29 Oeste 0 -- -- 26
2019-08-16 16:00:00 36.7 13 Noroeste 30 Noroeste 0 -- -- 23
2019-08-16 15:00:00 35.7 11 Noroeste 22 Oeste 0 -- -- 27
2019-08-16 14:00:00 34 8 Norte 21 Oeste 0 -- -- 30
2019-08-16 13:00:00 32.5 10 Oeste 21 Oeste 0 -- -- 34
2019-08-16 12:00:00 29.7 5 Oeste 13 Noroeste 0 -- -- 41
2019-08-16 11:00:00 27.1 5 Oeste 13 Oeste 0 -- -- 46
2019-08-16 10:00:00 24.4 5 Sudoeste 10 Noroeste 0 -- -- 52
2019-08-16 09:00:00 21 0 Calma 5 Sudeste 0 -- -- 56
2019-08-16 08:00:00 16.7 4 Sur 8 Sur 0 -- -- 58
2019-08-16 07:00:00 17.3 3 Sur 5 Sur 0 -- -- 58
2019-08-16 06:00:00 19.4 2 Sudeste 7 Sudoeste 0 -- -- 56
2019-08-16 05:00:00 20.7 3 Oeste 7 Oeste 0 -- -- 54
2019-08-16 04:00:00 21.7 4 Sur 6 Oeste 0 -- -- 53
2019-08-16 03:00:00 23.2 3 Sur 11 Oeste 0 -- -- 48
2019-08-16 02:00:00 25.8 10 Oeste 22 Oeste 0 -- -- 43
2019-08-16 01:00:00 27.2 14 Oeste 24 Oeste 0 -- -- 39
2019-08-16 00:00:00 29 17 Oeste 31 Oeste 0 -- -- 36
2019-08-15 23:00:00 30.1 15 Noroeste 26 Noroeste 0 -- -- 30
2019-08-15 22:00:00 30.7 6 Noroeste 13 Noroeste 0 -- -- 28
2019-08-15 21:00:00 34.4 10 Noroeste 21 Noroeste 0 -- -- 23
2019-08-15 20:00:00 35.7 13 Noroeste 25 Norte 0 -- -- 21
2019-08-15 19:00:00 36.4 12 Oeste 29 Noroeste 0 -- -- 21
2019-08-15 18:00:00 36.4 11 Noroeste 27 Noroeste 0 -- -- 22
2019-08-15 17:00:00 36.7 14 Noroeste 26 Noroeste 0 -- -- 20
2019-08-15 16:00:00 36.1 7 Sur 23 Noroeste 0 -- -- 22
2019-08-15 15:00:00 35.3 7 Norte 22 Noroeste 0 -- -- 23
2019-08-15 14:00:00 34.8 7 Oeste 25 Noroeste 0 -- -- 24
2019-08-15 13:00:00 32.8 8 Noroeste 19 Oeste 0 -- -- 33
2019-08-15 12:00:00 30.3 5 Oeste 11 Noroeste 0 -- -- 41
2019-08-15 11:00:00 27.6 5 Noroeste 11 Noroeste 0 -- -- 49
2019-08-15 10:00:00 25.1 6 Noroeste 10 Oeste 0 -- -- 55
2019-08-15 09:00:00 21.5 2 Oeste 5 Oeste 0 -- -- 64
2019-08-15 08:00:00 16 3 Sur 4 Sur 0 -- -- 72
2019-08-15 07:00:00 17 0 Calma 6 Sur 0 -- -- 61
2019-08-15 06:00:00 19.1 0 Calma 5 Noroeste 0 -- -- 69
2019-08-15 05:00:00 20.5 3 Oeste 7 Oeste 0 -- -- 62
2019-08-15 04:00:00 20.1 2 Sudoeste 6 Oeste 0 -- -- 63
2019-08-15 03:00:00 22.2 6 Oeste 9 Oeste 0 -- -- 56
2019-08-15 02:00:00 23.9 5 Oeste 17 Oeste 0 -- -- 48
2019-08-15 01:00:00 24.9 10 Oeste 23 Oeste 0 -- -- 39
2019-08-15 00:00:00 27.3 14 Noroeste 26 Noroeste 0 -- -- 35
2019-08-14 23:00:00 23 4 Sudoeste 7 Sudoeste 0 -- -- 28
2019-08-14 22:00:00 27 0 Calma 10 Noroeste 0 -- -- 26
2019-08-14 21:00:00 32.6 6 Noroeste 17 Noroeste 0 -- -- 19
2019-08-14 20:00:00 33.8 11 Norte 23 Norte 0 -- -- 18
2019-08-14 19:00:00 34.5 12 Noroeste 23 Noroeste 0 -- -- 17
2019-08-14 18:00:00 34.8 11 Oeste 23 Oeste 0 -- -- 17
2019-08-14 17:00:00 34.8 13 Noroeste 28 Noroeste 0 -- -- 17
2019-08-14 16:00:00 34.2 12 Noroeste 22 Noroeste 0 -- -- 18
2019-08-14 15:00:00 33.4 12 Oeste 23 Oeste 0 -- -- 17
2019-08-14 14:00:00 32.8 10 Noroeste 20 Noroeste 0 -- -- 19
2019-08-14 13:00:00 31.5 11 Nordeste 17 Norte 0 -- -- 22
2019-08-14 12:00:00 30 4 Norte 9 Noroeste 0 -- -- 24
2019-08-14 11:00:00 26.7 3 Norte 10 Noroeste 0 -- -- 30
2019-08-14 10:00:00 23.8 3 Oeste 6 Sudoeste 0 -- -- 36
2019-08-14 09:00:00 17.5 5 Sur 6 Sur 0 -- -- 51
2019-08-14 08:00:00 12 3 Sudeste 6 Sudeste 0 -- -- 50
2019-08-14 07:00:00 12.2 4 Sur 6 Sur 0 -- -- 50
2019-08-14 06:00:00 13.5 4 Sur 9 Sudeste 0 -- -- 55
2019-08-14 05:00:00 14.4 5 Sur 9 Sur 0 -- -- 58
2019-08-14 04:00:00 15.6 3 Sudoeste 8 Sur 0 -- -- 53
2019-08-14 03:00:00 18 2 Sudoeste 8 Oeste 0 -- -- 47
2019-08-14 02:00:00 19.6 6 Oeste 12 Oeste 0 -- -- 42
2019-08-14 01:00:00 21.1 4 Oeste 9 Oeste 0 -- -- 32
2019-08-14 00:00:00 18.5 3 Sudeste 7 Sur 0 -- -- 25
2019-08-13 23:00:00 20.1 3 Sur 4 Sur 0 -- -- 27
2019-08-13 22:00:00 25 2 Noroeste 10 Noroeste 0 -- -- 22
2019-08-13 21:00:00 30.6 8 Noroeste 18 Noroeste 0 -- -- 16
2019-08-13 20:00:00 32.3 8 Noroeste 19 Norte 0 -- -- 15
2019-08-13 19:00:00 32.5 9 Noroeste 21 Norte 0 -- -- 16
2019-08-13 18:00:00 32.6 9 Norte 21 Noroeste 0 -- -- 15
2019-08-13 17:00:00 32.2 11 Noroeste 22 Nordeste 0 -- -- 16
2019-08-13 16:00:00 32 8 Nordeste 23 Noroeste 0 -- -- 17
2019-08-13 15:00:00 31.1 10 Nordeste 19 Nordeste 0 -- -- 19
2019-08-13 14:00:00 30.1 9 Noroeste 22 Noroeste 0 -- -- 20
2019-08-13 13:00:00 28 6 Oeste 14 Noroeste 0 -- -- 23
2019-08-13 12:00:00 25.9 5 Noroeste 13 Norte 0 -- -- 28
2019-08-13 11:00:00 23.1 5 Noroeste 15 Oeste 0 -- -- 32
2019-08-13 10:00:00 20.4 9 Noroeste 13 Oeste 0 -- -- 37
2019-08-13 09:00:00 17.6 5 Oeste 9 Noroeste 0 -- -- 44
2019-08-13 08:00:00 13.8 4 Oeste 10 Oeste 0 -- -- 51
2019-08-13 07:00:00 14 7 Oeste 10 Oeste 0 -- -- 48
2019-08-13 06:00:00 14.8 4 Oeste 7 Oeste 0 -- -- 48
2019-08-13 05:00:00 14.3 2 Sudoeste 6 Sudoeste 0 -- -- 48
2019-08-13 04:00:00 15.7 2 Sur 12 Oeste 0 -- -- 42
2019-08-13 03:00:00 18.2 10 Oeste 16 Oeste 0 -- -- 32
2019-08-13 02:00:00 16.8 4 Oeste 8 Oeste 0 -- -- 29
2019-08-13 01:00:00 17.3 3 Oeste 8 Noroeste 0 -- -- 29
2019-08-13 00:00:00 18.4 2 Noroeste 5 Noroeste 0 -- -- 29
2019-08-12 23:00:00 21.5 2 Noroeste 9 Noroeste 0 -- -- 25
2019-08-12 22:00:00 24.9 7 Noroeste 19 Noroeste 0 -- -- 23
2019-08-12 21:00:00 27.8 9 Norte 19 Nordeste 0 -- -- 22
2019-08-12 20:00:00 28.1 10 Norte 18 Nordeste 0 -- -- 22
2019-08-12 19:00:00 28.2 12 Nordeste 24 Este 0 -- -- 20
2019-08-12 18:00:00 28.3 14 Nordeste 27 Nordeste 0 -- -- 22
2019-08-12 17:00:00 28.3 15 Norte 27 Nordeste 0 -- -- 22
2019-08-12 16:00:00 27.7 14 Norte 31 Norte 0 -- -- 22
2019-08-12 15:00:00 27.3 19 Norte 31 Norte 0 -- -- 25
2019-08-12 14:00:00 26 16 Norte 30 Norte 0 -- -- 27
2019-08-12 13:00:00 24.1 13 Norte 26 Noroeste 0 -- -- 34
2019-08-12 12:00:00 22 14 Norte 28 Noroeste 0 -- -- 40
2019-08-12 11:00:00 19.1 17 Noroeste 26 Noroeste 0 -- -- 48
2019-08-12 10:00:00 17.3 13 Noroeste 21 Noroeste 0 -- -- 56
2019-08-12 09:00:00 15 12 Noroeste 20 Oeste 0 -- -- 65
2019-08-12 08:00:00 12.7 8 Oeste 17 Oeste 0 -- -- 71
2019-08-12 07:00:00 13.8 12 Oeste 23 Noroeste 0 -- -- 68
2019-08-12 06:00:00 14 9 Oeste 24 Oeste 0 -- -- 66
2019-08-12 05:00:00 14.5 9 Oeste 19 Oeste 0 -- -- 64
2019-08-12 04:00:00 15.6 14 Oeste 26 Oeste 0 -- -- 60
2019-08-12 03:00:00 16.8 17 Oeste 26 Oeste 0 -- -- 55
2019-08-12 02:00:00 17.9 18 Noroeste 27 Noroeste 0 -- -- 50
2019-08-12 01:00:00 19.3 17 Noroeste 31 Noroeste 0 -- -- 44
2019-08-12 00:00:00 20.8 19 Noroeste 28 Noroeste 0 -- -- 38
2019-08-11 23:00:00 22.1 13 Noroeste 24 Noroeste 0 -- -- 35
2019-08-11 22:00:00 23 12 Noroeste 21 Noroeste 0 -- -- 32
2019-08-11 21:00:00 24.5 13 Noroeste 30 Noroeste 0 -- -- 28
2019-08-11 20:00:00 26 19 Noroeste 33 Noroeste 0 -- -- 27
2019-08-11 19:00:00 25.8 17 Noroeste 31 Noroeste 0 -- -- 27
2019-08-11 18:00:00 25.8 18 Oeste 39 Noroeste 0 -- -- 27
2019-08-11 17:00:00 27.3 19 Oeste 36 Oeste 0 -- -- 24
2019-08-11 16:00:00 26.3 20 Noroeste 41 Noroeste 0 -- -- 28
2019-08-11 15:00:00 25.4 21 Noroeste 35 Noroeste 0 -- -- 29
2019-08-11 14:00:00 24.3 20 Noroeste 38 Oeste 0 -- -- 33
2019-08-11 13:00:00 23.2 21 Oeste 33 Oeste 0 -- -- 36
2019-08-11 12:00:00 21 21 Oeste 34 Oeste 0 -- -- 50
2019-08-11 11:00:00 19 16 Noroeste 28 Oeste 0 -- -- 57
2019-08-11 10:00:00 16.8 20 Oeste 33 Oeste 0 -- -- 67
2019-08-11 09:00:00 15.6 16 Noroeste 28 Oeste 0 -- -- 73
2019-08-11 08:00:00 14.5 15 Oeste 30 Oeste 0 -- -- 78
2019-08-11 07:00:00 15.2 18 Oeste 32 Oeste 0 -- -- 71
2019-08-11 06:00:00 16.4 17 Oeste 33 Oeste 0 -- -- 63
2019-08-11 05:00:00 17.5 22 Oeste 32 Oeste 0 -- -- 59
2019-08-11 04:00:00 17.7 13 Oeste 22 Oeste 0 -- -- 56
2019-08-11 03:00:00 18 17 Oeste 31 Noroeste 0 -- -- 56
2019-08-11 02:00:00 19 19 Oeste 35 Noroeste 0 -- -- 55
2019-08-11 01:00:00 20.5 22 Oeste 36 Oeste 0 -- -- 56
2019-08-11 00:00:00 22.6 18 Noroeste 32 Noroeste 0 -- -- 48
2019-08-10 23:00:00 23.9 17 Noroeste 30 Noroeste 0 -- -- 40
2019-08-10 22:00:00 25.2 17 Noroeste 36 Noroeste 0 -- -- 36
2019-08-10 21:00:00 27.4 14 Noroeste 29 Noroeste 0 -- -- 24
2019-08-10 20:00:00 29.4 21 Noroeste 31 Noroeste 0 -- -- 23
2019-08-10 19:00:00 30.8 19 Noroeste 32 Noroeste 0 -- -- 21
2019-08-10 18:00:00 31.2 8 Oeste 21 Noroeste 0 -- -- 23
2019-08-10 17:00:00 30.9 13 Oeste 21 Oeste 0 -- -- 25
2019-08-10 16:00:00 30.2 15 Oeste 26 Oeste 0 -- -- 27
2019-08-10 15:00:00 28.9 9 Oeste 27 Oeste 0 -- -- 27
2019-08-10 14:00:00 27.1 10 Oeste 22 Noroeste 0 -- -- 33
2019-08-10 13:00:00 25.4 9 Noroeste 21 Oeste 0 -- -- 40
2019-08-10 12:00:00 23.7 6 Noroeste 17 Noroeste 0 -- -- 48
2019-08-10 11:00:00 22.5 6 Noroeste 14 Noroeste 0 -- -- 51
2019-08-10 10:00:00 20.5 3 Norte 14 Noroeste 0 -- -- 61
2019-08-10 09:00:00 18.4 7 Noroeste 12 Oeste 0 -- -- 72
2019-08-10 08:00:00 14.4 4 Oeste 8 Sudoeste 0 -- -- 82
2019-08-10 07:00:00 16 4 Sudoeste 10 Oeste 0 -- -- 78
2019-08-10 06:00:00 17.5 9 Oeste 17 Oeste 0 -- -- 74
2019-08-10 05:00:00 18.3 9 Oeste 17 Noroeste 0 -- -- 72
2019-08-10 04:00:00 19.2 10 Oeste 23 Noroeste 0 -- -- 68
2019-08-10 03:00:00 20.5 11 Noroeste 25 Oeste 0 -- -- 63
2019-08-10 02:00:00 21.3 12 Noroeste 22 Noroeste 0 -- -- 59
2019-08-10 01:00:00 21.7 12 Oeste 21 Oeste 0 -- -- 55
2019-08-10 00:00:00 22.7 13 Noroeste 22 Noroeste 0 -- -- 54
2019-08-09 23:00:00 23.2 10 Noroeste 18 Noroeste 0 -- -- 64
2019-08-09 22:00:00 24.1 12 Noroeste 27 Noroeste 0 -- -- 62
2019-08-09 21:00:00 25.5 19 Noroeste 29 Oeste 0 -- -- 58
2019-08-09 20:00:00 27.4 20 Noroeste 32 Noroeste 0 -- -- 55
2019-08-09 19:00:00 28.8 19 Noroeste 33 Oeste 0 -- -- 53
2019-08-09 18:00:00 28.7 24 Noroeste 37 Noroeste 0 -- -- 55
2019-08-09 17:00:00 28.7 26 Noroeste 40 Oeste 0 -- -- 57
2019-08-09 16:00:00 30.1 16 Oeste 34 Oeste 0 -- -- 49
2019-08-09 15:00:00 30.1 13 Sudoeste 26 Oeste 0 -- -- 49
2019-08-09 14:00:00 29.4 8 Sudoeste 23 Sudoeste 0 -- -- 53
2019-08-09 13:00:00 27.6 12 Sudoeste 30 Sudoeste 0 -- -- 59
2019-08-09 12:00:00 25.7 9 Sudoeste 21 Sudoeste 0 -- -- 66
2019-08-09 11:00:00 22.9 11 Sudoeste 18 Oeste 0 -- -- 76
2019-08-09 10:00:00 21.7 8 Sudoeste 18 Sudoeste 0 -- -- 79
2019-08-09 09:00:00 20.9 7 Sur 12 Sur 0 -- -- 80
2019-08-09 08:00:00 18.4 4 Sur 8 Sur 0 -- -- 82
2019-08-09 07:00:00 18.6 7 Sudoeste 11 Oeste 0 -- -- 82
2019-08-09 06:00:00 19.6 6 Oeste 10 Oeste 0 -- -- 80
2019-08-09 05:00:00 20.3 7 Noroeste 10 Noroeste 0 -- -- 78
2019-08-09 04:00:00 21.1 4 Sudoeste 11 Oeste 0 -- -- 67
2019-08-09 03:00:00 22.4 7 Oeste 15 Noroeste 0 -- -- 64
2019-08-09 02:00:00 23.4 6 Noroeste 22 Oeste 0 -- -- 58
2019-08-09 01:00:00 24.5 14 Oeste 27 Oeste 0 -- -- 57
2019-08-09 00:00:00 25.8 14 Oeste 39 Oeste 0 -- -- 58
2019-08-08 23:00:00 27.8 21 Oeste 29 Oeste 0 -- -- 48
2019-08-08 22:00:00 29 17 Oeste 32 Oeste 0 -- -- 41
2019-08-08 21:00:00 31 21 Oeste 35 Noroeste 0 -- -- 33
2019-08-08 20:00:00 33 22 Oeste 33 Oeste 0 -- -- 30
2019-08-08 19:00:00 35.1 15 Oeste 32 Oeste 0 -- -- 25
2019-08-08 18:00:00 35.2 11 Oeste 33 Sudoeste 0 -- -- 24
2019-08-08 17:00:00 35.2 16 Oeste 46 Sudoeste 0 -- -- 23
2019-08-08 16:00:00 34.4 17 Oeste 32 Sudoeste 0 -- -- 25
2019-08-08 15:00:00 33.3 14 Oeste 28 Sudoeste 0 -- -- 26
2019-08-08 14:00:00 32.2 10 Oeste 23 Oeste 0 -- -- 29
2019-08-08 13:00:00 29.7 6 Sudeste 22 Sudeste 0 -- -- 40
2019-08-08 12:00:00 27.5 6 Sur 16 Sur 0 -- -- 46
2019-08-08 11:00:00 25.1 3 Sudoeste 10 Sur 0 -- -- 53
2019-08-08 10:00:00 23 4 Sur 8 Sudeste 0 -- -- 60
2019-08-08 09:00:00 20.3 4 Sudeste 6 Sudeste 0 -- -- 68
2019-08-08 08:00:00 15.3 4 Sur 7 Sur 0 -- -- 74
2019-08-08 07:00:00 15.3 4 Sur 6 Sur 0 -- -- 74
2019-08-08 06:00:00 15.6 2 Sudoeste 4 Sudoeste 0 -- -- 70
2019-08-08 05:00:00 16.6 0 Calma 5 Sudeste 0 -- -- 67
2019-08-08 04:00:00 17.5 3 Sur 5 Sudeste 0 -- -- 66
2019-08-08 03:00:00 18.2 3 Sur 6 Sur 0 -- -- 65
2019-08-08 02:00:00 18.1 3 Sur 7 Sur 0 -- -- 62
2019-08-08 01:00:00 18.8 3 Sur 8 Sur 0 -- -- 59
2019-08-08 00:00:00 19.3 3 Sudeste 6 Sur 0 -- -- 58
2019-08-07 23:00:00 20.7 4 Sur 10 Sudeste 0 -- -- 55
2019-08-07 22:00:00 23.2 5 Noroeste 8 Noroeste 0 -- -- 51
2019-08-07 21:00:00 26.1 4 Norte 9 Noroeste 0 -- -- 46
2019-08-07 20:00:00 26 6 Noroeste 12 Noroeste 0 -- -- 47
2019-08-07 19:00:00 24.9 8 Noroeste 12 Noroeste 0 -- -- 53
2019-08-07 18:00:00 24.2 5 Noroeste 17 Norte 0 -- -- 57
2019-08-07 17:00:00 25.8 10 Noroeste 19 Noroeste 0 -- -- 45
2019-08-07 16:00:00 26.1 6 Oeste 15 Noroeste 0 -- -- 44
2019-08-07 15:00:00 26.3 8 Norte 22 Oeste 0 -- -- 44
2019-08-07 14:00:00 26 13 Noroeste 21 Oeste 0 -- -- 47
2019-08-07 13:00:00 25.4 12 Noroeste 21 Noroeste 0 -- -- 48
2019-08-07 12:00:00 24.2 12 Noroeste 19 Noroeste 0 -- -- 56
2019-08-07 11:00:00 22.2 8 Oeste 21 Oeste 0 -- -- 66
2019-08-07 10:00:00 21.6 10 Oeste 18 Noroeste 0 -- -- 68
2019-08-07 09:00:00 20.4 8 Oeste 12 Oeste 0 -- -- 72
2019-08-07 08:00:00 16.4 0 Calma 7 Sur 0 -- -- 76
2019-08-07 07:00:00 16.9 5 Sudoeste 8 Sudoeste 0 -- -- 75
2019-08-07 06:00:00 17.7 0 Calma 5 Noroeste 0 -- -- 77
2019-08-07 05:00:00 19 0 Calma 12 Sudoeste 0 -- -- 71
2019-08-07 04:00:00 20.6 9 Oeste 18 Oeste 0 -- -- 68
2019-08-07 03:00:00 21.8 10 Oeste 18 Oeste 0 -- -- 64
2019-08-07 02:00:00 23 9 Noroeste 24 Noroeste 0 -- -- 59
2019-08-07 01:00:00 24 17 Noroeste 26 Oeste 0 -- -- 56
2019-08-07 00:00:00 25.4 19 Noroeste 33 Oeste 0 -- -- 51
2019-08-06 23:00:00 27 18 Noroeste 29 Noroeste 0 -- -- 46
2019-08-06 22:00:00 28.5 18 Noroeste 30 Oeste 0 -- -- 40
2019-08-06 21:00:00 31.1 19 Oeste 29 Noroeste 0 -- -- 31
2019-08-06 20:00:00 32.9 22 Oeste 36 Oeste 0 -- -- 26
2019-08-06 19:00:00 33.7 22 Oeste 41 Noroeste 0 -- -- 23
2019-08-06 18:00:00 35.5 15 Oeste 27 Oeste 0 -- -- 16
2019-08-06 17:00:00 34.7 7 Noroeste 32 Noroeste 0 -- -- 23
2019-08-06 16:00:00 34.3 14 Oeste 31 Oeste 0 -- -- 26
2019-08-06 15:00:00 33.3 13 Noroeste 27 Noroeste 0 -- -- 29
2019-08-06 14:00:00 32.3 12 Oeste 25 Noroeste 0 -- -- 27
2019-08-06 13:00:00 30.9 10 Noroeste 19 Oeste 0 -- -- 32
2019-08-06 12:00:00 29.5 9 Noroeste 18 Oeste 0 -- -- 34
2019-08-06 11:00:00 27.2 10 Sur 17 Sur 0 -- -- 40
2019-08-06 10:00:00 23.2 12 Sur 17 Sur 0 -- -- 48
2019-08-06 09:00:00 19.1 4 Sudeste 9 Oeste 0 -- -- 71
2019-08-06 08:00:00 16.3 5 Norte 15 Noroeste 0 -- -- 78
2019-08-06 07:00:00 16 5 Noroeste 15 Sudoeste 0 -- -- 62
2019-08-06 06:00:00 16.3 8 Sur 15 Sur 0 -- -- 61
2019-08-06 05:00:00 15 4 Sudeste 5 Sudeste 0 -- -- 51
2019-08-06 04:00:00 16.2 0 Calma 4 Sur 0 -- -- 49
2019-08-06 03:00:00 18.9 3 Sudeste 8 Sudoeste 0 -- -- 50
2019-08-06 02:00:00 23.3 9 Oeste 24 Oeste 0 -- -- 46
2019-08-06 01:00:00 24.8 12 Oeste 22 Oeste 0 -- -- 42
2019-08-06 00:00:00 26.2 13 Oeste 22 Noroeste 0 -- -- 34
2019-08-05 23:00:00 28.3 13 Noroeste 21 Noroeste 0 -- -- 29
2019-08-05 22:00:00 29.7 10 Noroeste 21 Noroeste 0 -- -- 27
2019-08-05 21:00:00 32.5 17 Oeste 29 Noroeste 0 -- -- 18
2019-08-05 20:00:00 34 17 Noroeste 30 Noroeste 0 -- -- 15
2019-08-05 19:00:00 34.6 20 Noroeste 34 Noroeste 0 -- -- 15
2019-08-05 18:00:00 35 18 Noroeste 35 Noroeste 0 -- -- 18
2019-08-05 17:00:00 35.5 15 Oeste 35 Noroeste 0 -- -- 22
2019-08-05 16:00:00 34.9 17 Oeste 31 Noroeste 0 -- -- 20
2019-08-05 15:00:00 34.2 12 Noroeste 23 Oeste 0 -- -- 24
2019-08-05 14:00:00 31.9 7 Noroeste 21 Oeste 0 -- -- 29
2019-08-05 13:00:00 29.9 8 Norte 27 Nordeste 0 -- -- 34
2019-08-05 12:00:00 27.5 5 Norte 11 Nordeste 0 -- -- 39
2019-08-05 11:00:00 24.6 4 Este 12 Sudeste 0 -- -- 45
2019-08-05 10:00:00 21.4 5 Este 9 Este 0 -- -- 54
2019-08-05 09:00:00 17.6 0 Calma 4 Sur 0 -- -- 64
2019-08-05 08:00:00 12.5 3 Sudeste 5 Sur 0 -- -- 67
2019-08-05 07:00:00 13.3 3 Norte 4 Norte 0 -- -- 66
2019-08-05 06:00:00 15.1 2 Sur 4 Sur 0 -- -- 64
2019-08-05 05:00:00 17.1 3 Sur 9 Sudoeste 0 -- -- 61
2019-08-05 04:00:00 18.7 7 Oeste 10 Oeste 0 -- -- 59
2019-08-05 03:00:00 21 9 Oeste 14 Noroeste 0 -- -- 56
2019-08-05 02:00:00 22.1 7 Noroeste 19 Noroeste 0 -- -- 52
2019-08-05 01:00:00 23.8 12 Noroeste 28 Oeste 0 -- -- 48
2019-08-05 00:00:00 25.2 17 Noroeste 30 Noroeste 0 -- -- 47
2019-08-04 23:00:00 27.2 21 Noroeste 30 Oeste 0 -- -- 43
2019-08-04 22:00:00 29.3 15 Noroeste 27 Noroeste 0 -- -- 34
2019-08-04 21:00:00 32 18 Noroeste 30 Oeste 0 -- -- 28
2019-08-04 20:00:00 33.7 14 Noroeste 25 Noroeste 0 -- -- 25
2019-08-04 19:00:00 34.1 12 Noroeste 27 Oeste 0 -- -- 23
2019-08-04 18:00:00 34.3 13 Oeste 30 Oeste 0 -- -- 24
2019-08-04 17:00:00 33.8 9 Noroeste 27 Noroeste 0 -- -- 26
2019-08-04 16:00:00 33.1 13 Noroeste 28 Noroeste 0 -- -- 28
2019-08-04 15:00:00 31.9 13 Noroeste 27 Oeste 0 -- -- 33
2019-08-04 14:00:00 30.7 12 Noroeste 25 Noroeste 0 -- -- 35
2019-08-04 13:00:00 29.3 8 Noroeste 20 Sur 0 -- -- 37
2019-08-04 12:00:00 26.6 6 Sudoeste 12 Oeste 0 -- -- 47
2019-08-04 11:00:00 23.4 4 Norte 9 Noroeste 0 -- -- 59
2019-08-04 10:00:00 20.6 4 Norte 10 Noroeste 0 -- -- 69
2019-08-04 09:00:00 18.1 5 Norte 7 Norte 0 -- -- 79
2019-08-04 08:00:00 13.4 4 Sur 5 Sur 0 -- -- 72
2019-08-04 07:00:00 13.6 2 Sudoeste 3 Sur 0 -- -- 67
2019-08-04 06:00:00 15.3 3 Sur 6 Sur 0 -- -- 65
2019-08-04 05:00:00 16.6 3 Sur 7 Sudoeste 0 -- -- 65
2019-08-04 04:00:00 17.9 4 Sudoeste 6 Oeste 0 -- -- 62
2019-08-04 03:00:00 20.8 3 Sudoeste 15 Oeste 0 -- -- 56
2019-08-04 02:00:00 23.3 9 Oeste 24 Oeste 0 -- -- 54
2019-08-04 01:00:00 24.8 15 Oeste 22 Oeste 0 -- -- 49
2019-08-04 00:00:00 26.4 11 Oeste 29 Noroeste 0 -- -- 41
2019-08-03 23:00:00 25.8 7 Sudoeste 13 Oeste 0 -- -- 28
2019-08-03 22:00:00 29.1 9 Oeste 24 Oeste 0 -- -- 25
2019-08-03 21:00:00 31.9 17 Oeste 37 Noroeste 0 -- -- 22
2019-08-03 20:00:00 33.3 21 Oeste 36 Noroeste 0 -- -- 21
2019-08-03 19:00:00 34.7 18 Noroeste 35 Oeste 0 -- -- 19
2019-08-03 18:00:00 35.5 14 Noroeste 30 Oeste 0 -- -- 18
2019-08-03 17:00:00 35.8 13 Oeste 31 Sudoeste 0 -- -- 18
2019-08-03 16:00:00 35.2 15 Sudoeste 32 Sudoeste 0 -- -- 18
2019-08-03 15:00:00 34.6 16 Sudoeste 29 Sudoeste 0 -- -- 21
2019-08-03 14:00:00 33.4 15 Oeste 28 Oeste 0 -- -- 21
2019-08-03 13:00:00 31.5 5 Norte 16 Oeste 0 -- -- 30
2019-08-03 12:00:00 28.9 8 Norte 13 Noroeste 0 -- -- 36
2019-08-03 11:00:00 26.2 3 Noroeste 9 Norte 0 -- -- 44
2019-08-03 10:00:00 23.1 5 Noroeste 10 Noroeste 0 -- -- 48
2019-08-03 09:00:00 20.5 3 Sur 7 Sudeste 0 -- -- 57
2019-08-03 08:00:00 14.7 2 Sudeste 4 Sudoeste 0 -- -- 63
2019-08-03 07:00:00 16 0 Calma 9 Sur 0 -- -- 59
2019-08-03 06:00:00 17.8 8 Sur 10 Sur 0 -- -- 59
2019-08-03 05:00:00 17.6 6 Sur 12 Sur 0 -- -- 59
2019-08-03 04:00:00 17.7 4 Sur 8 Sudoeste 0 -- -- 63
2019-08-03 03:00:00 18.6 4 Sudoeste 9 Sudoeste 0 -- -- 54
2019-08-03 02:00:00 22.1 2 Oeste 17 Oeste 0 -- -- 45
2019-08-03 01:00:00 24.1 10 Oeste 17 Oeste 0 -- -- 47
2019-08-03 00:00:00 20.8 4 Sur 6 Sur 0 -- -- 31
2019-08-02 23:00:00 23 5 Sur 6 Sur 0 -- -- 28
2019-08-02 22:00:00 28.6 4 Noroeste 17 Noroeste 0 -- -- 25
2019-08-02 21:00:00 31.9 13 Noroeste 21 Noroeste 0 -- -- 21
2019-08-02 20:00:00 33.2 13 Noroeste 27 Oeste 0 -- -- 21
2019-08-02 19:00:00 33.9 15 Noroeste 27 Noroeste 0 -- -- 22
2019-08-02 18:00:00 33.9 16 Noroeste 31 Noroeste 0 -- -- 22
2019-08-02 17:00:00 33.6 12 Noroeste 28 Oeste 0 -- -- 24
2019-08-02 16:00:00 33 9 Oeste 22 Noroeste 0 -- -- 22
2019-08-02 15:00:00 31.3 9 Norte 21 Noroeste 0 -- -- 27
2019-08-02 14:00:00 29.8 12 Norte 19 Noroeste 0 -- -- 30
2019-08-02 13:00:00 28.4 10 Noroeste 16 Oeste 0 -- -- 33
2019-08-02 12:00:00 26 4 Norte 9 Noroeste 0 -- -- 37
2019-08-02 11:00:00 22.4 3 Norte 8 Norte 0 -- -- 48
2019-08-02 10:00:00 19.5 2 Sudeste 7 Norte 0 -- -- 56
2019-08-02 09:00:00 16.7 0 Calma 5 Sudeste 0 -- -- 67
2019-08-02 08:00:00 11.3 5 Sudoeste 8 Sudoeste 0 -- -- 63
2019-08-02 07:00:00 11.5 5 Sur 6 Sur 0 -- -- 61
2019-08-02 06:00:00 14.1 3 Sudoeste 10 Oeste 0 -- -- 58
2019-08-02 05:00:00 17 6 Oeste 14 Noroeste 0 -- -- 56
2019-08-02 04:00:00 18 6 Noroeste 16 Noroeste 0 -- -- 54
2019-08-02 03:00:00 20 3 Oeste 13 Oeste 0 -- -- 47
2019-08-02 02:00:00 21.9 11 Oeste 22 Oeste 0 -- -- 43
2019-08-02 01:00:00 23.5 12 Oeste 30 Noroeste 0 -- -- 37
2019-08-02 00:00:00 25.2 20 Noroeste 32 Oeste 0 -- -- 34
2019-08-01 23:00:00 27 13 Noroeste 23 Noroeste 0 -- -- 30
2019-08-01 22:00:00 28.8 11 Noroeste 26 Noroeste 0 -- -- 25
2019-08-01 21:00:00 31.3 16 Noroeste 28 Noroeste 0 -- -- 22
2019-08-01 20:00:00 32.8 16 Noroeste 29 Oeste 0 -- -- 21
2019-08-01 19:00:00 33.5 18 Noroeste 32 Oeste 0 -- -- 21
2019-08-01 18:00:00 33.9 13 Noroeste 27 Noroeste 0 -- -- 22
2019-08-01 17:00:00 33.4 12 Noroeste 33 Oeste 0 -- -- 21
2019-08-01 16:00:00 32.9 8 Noroeste 27 Oeste 0 -- -- 21
2019-08-01 15:00:00 32.7 14 Oeste 32 Oeste 0 -- -- 23
2019-08-01 14:00:00 31.6 7 Noroeste 27 Oeste 0 -- -- 25
2019-08-01 13:00:00 30.5 10 Oeste 24 Oeste 0 -- -- 25
2019-08-01 12:00:00 28.8 10 Oeste 19 Sudoeste 0 -- -- 28
2019-08-01 11:00:00 27 7 Sudoeste 12 Sudoeste 0 -- -- 35
2019-08-01 10:00:00 24.1 0 Calma 6 Sur 0 -- -- 44
2019-08-01 09:00:00 20 2 Sur 7 Sudeste 0 -- -- 53
2019-08-01 08:00:00 14.9 0 Calma 6 Noroeste 0 -- -- 54
2019-08-01 07:00:00 17.2 5 Noroeste 12 Sur 0 -- -- 52
2019-08-01 06:00:00 17.7 7 Sudeste 10 Sur 0 -- -- 50
2019-08-01 05:00:00 18.4 5 Sur 8 Sudeste 0 -- -- 52
2019-08-01 04:00:00 17.7 4 Sudoeste 7 Sudoeste 0 -- -- 52
2019-08-01 03:00:00 21.3 5 Sur 16 Oeste 0 -- -- 45
2019-08-01 02:00:00 23.3 12 Oeste 20 Oeste 0 -- -- 41
2019-08-01 01:00:00 23.6 10 Oeste 17 Oeste 0 -- -- 38
2019-08-01 00:00:00 24.3 11 Oeste 23 Oeste 0 -- -- 37
2019-07-31 23:00:00 26.1 14 Oeste 31 Noroeste 0 -- -- 35
2019-07-31 22:00:00 28.2 17 Noroeste 31 Oeste 0 -- -- 30
2019-07-31 21:00:00 31.9 16 Noroeste 26 Noroeste 0 -- -- 17
2019-07-31 20:00:00 34.1 13 Oeste 25 Noroeste 0 -- -- 17
2019-07-31 19:00:00 34.6 17 Noroeste 28 Noroeste 0 -- -- 17
2019-07-31 18:00:00 34.9 13 Noroeste 31 Noroeste 0 -- -- 18
2019-07-31 17:00:00 34.6 14 Noroeste 27 Noroeste 0 -- -- 19
2019-07-31 16:00:00 34.2 14 Oeste 28 Oeste 0 -- -- 18
2019-07-31 15:00:00 33.8 7 Sur 20 Sudoeste 0 -- -- 18
2019-07-31 14:00:00 32.8 8 Sur 15 Sur 0 -- -- 19
2019-07-31 13:00:00 30.8 5 Sudeste 12 Sudeste 0 -- -- 23
2019-07-31 12:00:00 27.6 5 Nordeste 12 Norte 0 -- -- 28
2019-07-31 11:00:00 25.2 2 Este 13 Norte 0 -- -- 31
2019-07-31 10:00:00 22.8 2 Oeste 7 Oeste 0 -- -- 33
2019-07-31 09:00:00 19 0 Calma 5 Sur 0 -- -- 44
2019-07-31 08:00:00 12.7 3 Sudoeste 7 Sur 0 -- -- 56
2019-07-31 07:00:00 13.5 4 Sur 6 Sudeste 0 -- -- 55
2019-07-31 06:00:00 14.5 3 Oeste 8 Oeste 0 -- -- 54
2019-07-31 05:00:00 16.6 4 Oeste 13 Oeste 0 -- -- 50
2019-07-31 04:00:00 17.7 2 Sudoeste 19 Oeste 0 -- -- 49
2019-07-31 03:00:00 19.5 11 Oeste 18 Oeste 0 -- -- 47
2019-07-31 02:00:00 20.2 9 Oeste 19 Oeste 0 -- -- 46
2019-07-31 01:00:00 21.3 13 Oeste 21 Noroeste 0 -- -- 42
2019-07-31 00:00:00 20.4 3 Oeste 9 Oeste 0 -- -- 28
2019-07-30 23:00:00 22.9 7 Oeste 13 Noroeste 0 -- -- 25
2019-07-30 22:00:00 26.4 9 Noroeste 17 Noroeste 0 -- -- 22
2019-07-30 21:00:00 29.4 12 Noroeste 26 Noroeste 0 -- -- 20
2019-07-30 20:00:00 30.6 12 Noroeste 22 Noroeste 0 -- -- 19
2019-07-30 19:00:00 30.9 14 Noroeste 25 Noroeste 0 -- -- 18
2019-07-30 18:00:00 31.1 12 Noroeste 23 Noroeste 0 -- -- 19
2019-07-30 17:00:00 30.2 14 Noroeste 26 Noroeste 0 -- -- 19
2019-07-30 16:00:00 29 10 Norte 24 Norte 0 -- -- 22
2019-07-30 15:00:00 27.9 14 Noroeste 34 Noroeste 0 -- -- 26
2019-07-30 14:00:00 25.9 14 Noroeste 28 Noroeste 0 -- -- 30
2019-07-30 13:00:00 23.8 15 Noroeste 24 Noroeste 0 -- -- 36
2019-07-30 12:00:00 21.8 14 Noroeste 24 Noroeste 0 -- -- 41
2019-07-30 11:00:00 19.6 11 Noroeste 23 Noroeste 0 -- -- 48
2019-07-30 10:00:00 17.6 12 Noroeste 19 Noroeste 0 -- -- 54
2019-07-30 09:00:00 15.7 13 Oeste 17 Oeste 0 -- -- 64
2019-07-30 08:00:00 12.7 6 Sudoeste 14 Oeste 0 -- -- 74
2019-07-30 07:00:00 13.9 9 Oeste 20 Oeste 0 -- -- 69
2019-07-30 06:00:00 14.6 10 Oeste 19 Noroeste 0 -- -- 67
2019-07-30 05:00:00 15.1 10 Oeste 21 Oeste 0 -- -- 64
2019-07-30 04:00:00 16.2 15 Oeste 27 Noroeste 0 -- -- 60
2019-07-30 03:00:00 17.1 17 Oeste 30 Noroeste 0 -- -- 55
2019-07-30 02:00:00 18.3 18 Noroeste 27 Oeste 0 -- -- 49
2019-07-30 01:00:00 19.9 21 Noroeste 32 Oeste 0 -- -- 46
2019-07-30 00:00:00 21.5 20 Noroeste 36 Noroeste 0 -- -- 42
2019-07-29 23:00:00 23.4 21 Noroeste 35 Noroeste 0 -- -- 37
2019-07-29 22:00:00 25.3 18 Noroeste 34 Noroeste 0 -- -- 31
2019-07-29 21:00:00 27.7 19 Noroeste 32 Noroeste 0 -- -- 29
2019-07-29 20:00:00 28.9 20 Noroeste 35 Noroeste 0 -- -- 26
2019-07-29 19:00:00 29.7 20 Noroeste 36 Oeste 0 -- -- 26
2019-07-29 18:00:00 29.7 21 Noroeste 39 Oeste 0 -- -- 27
2019-07-29 17:00:00 29.8 23 Oeste 36 Oeste 0 -- -- 31
2019-07-29 16:00:00 29.1 20 Noroeste 37 Noroeste 0 -- -- 38
2019-07-29 15:00:00 28.4 16 Oeste 28 Oeste 0 -- -- 43
2019-07-29 14:00:00 27.1 14 Oeste 28 Oeste 0 -- -- 48
2019-07-29 13:00:00 25.4 13 Oeste 27 Noroeste 0 -- -- 49
2019-07-29 12:00:00 23.4 16 Noroeste 28 Oeste 0 -- -- 49
2019-07-29 11:00:00 21.7 15 Oeste 24 Oeste 0 -- -- 53
2019-07-29 10:00:00 20 14 Oeste 22 Oeste 0 -- -- 48
2019-07-29 09:00:00 17.3 6 Oeste 13 Oeste 0 -- -- 48
2019-07-29 08:00:00 15.1 8 Oeste 14 Oeste 0 -- -- 49
2019-07-29 07:00:00 12.4 7 Oeste 13 Oeste 0 -- -- 55
2019-07-29 06:00:00 14.8 3 Sudeste 10 Oeste 0 -- -- 58
2019-07-29 05:00:00 17.9 8 Sudoeste 12 Oeste 0 -- -- 47
2019-07-29 04:00:00 18.9 5 Oeste 20 Oeste 0 -- -- 53
2019-07-29 03:00:00 20.4 11 Oeste 20 Noroeste 0 -- -- 52
2019-07-29 02:00:00 21.6 13 Noroeste 27 Oeste 0 -- -- 50
2019-07-29 01:00:00 23.3 18 Noroeste 33 Oeste 0 -- -- 45
2019-07-29 00:00:00 23.4 17 Noroeste 26 Oeste 0 -- -- 44
2019-07-28 23:00:00 24.3 4 Noroeste 11 Noroeste 0 -- -- 41
2019-07-28 22:00:00 26.8 8 Noroeste 17 Noroeste 0 -- -- 35
2019-07-28 21:00:00 29.1 12 Noroeste 22 Noroeste 0 -- -- 34
2019-07-28 20:00:00 30.4 6 Noroeste 21 Noroeste 0 -- -- 35
2019-07-28 19:00:00 31.1 4 Noroeste 20 Noroeste 0 -- -- 32
2019-07-28 18:00:00 30.4 10 Sudoeste 21 Noroeste 0 -- -- 31
2019-07-28 17:00:00 29.8 6 Sudeste 19 Norte 0 -- -- 36
2019-07-28 16:00:00 28.7 6 Oeste 17 Este 0 -- -- 38
2019-07-28 15:00:00 28.6 5 Sudoeste 15 Sur 0 -- -- 41
2019-07-28 14:00:00 26.9 6 Sudeste 22 Nordeste 0 -- -- 46
2019-07-28 13:00:00 25.4 4 Oeste 13 Noroeste 0 -- -- 52
2019-07-28 12:00:00 23.7 4 Norte 9 Oeste 0 -- -- 58
2019-07-28 11:00:00 21.4 6 Oeste 13 Noroeste 0 -- -- 67
2019-07-28 10:00:00 18.8 2 Noroeste 5 Noroeste 0 -- -- 81
2019-07-28 09:00:00 15.4 3 Sur 6 Sudeste 0 -- -- 94
2019-07-28 08:00:00 13.1 5 Sudeste 8 Sur 0 -- -- 97
2019-07-28 07:00:00 12.9 3 Sudeste 8 Sur 0 -- -- 95
2019-07-28 06:00:00 13.6 3 Sudeste 5 Oeste 0 -- -- 93
2019-07-28 05:00:00 14.6 4 Sudoeste 8 Sudoeste 0 -- -- 92
2019-07-28 04:00:00 15.4 6 Oeste 10 Sudoeste 0 -- -- 90
2019-07-28 03:00:00 15.7 4 Oeste 9 Oeste 0 -- -- 89
2019-07-28 02:00:00 17 5 Oeste 10 Sudoeste 0 -- -- 86
2019-07-28 01:00:00 18.5 9 Oeste 15 Oeste 0 -- -- 77
2019-07-28 00:00:00 19.9 11 Oeste 18 Oeste 0 -- -- 78
2019-07-27 23:00:00 21 8 Oeste 16 Oeste 0 -- -- 77
2019-07-26 12:00:00 -- -- -- -- -- -- -- -- --
2019-07-26 11:00:00 -- -- -- -- -- -- -- -- --
2019-07-26 10:00:00 17.1 15 Oeste 22 Oeste 0 -- -- 75
2019-07-26 09:00:00 16.3 15 Oeste 25 Oeste 0 -- -- 78
2019-07-26 08:00:00 15.5 16 Oeste 29 Oeste 0 -- -- 80
2019-07-26 07:00:00 16.2 17 Oeste 28 Oeste 0 -- -- 76
2019-07-26 06:00:00 17.6 10 Oeste 22 Oeste 0 -- -- 69
2019-07-26 05:00:00 18.4 14 Oeste 21 Oeste 0 -- -- 68
2019-07-26 04:00:00 19.7 10 Oeste 28 Oeste 0 -- -- 68
2019-07-26 03:00:00 20.4 16 Oeste 30 Noroeste 0 -- -- 71
2019-07-26 02:00:00 21.2 16 Oeste 27 Oeste 0 -- -- 71
2019-07-26 01:00:00 22.1 19 Noroeste 35 Noroeste 0 -- -- 70
2019-07-26 00:00:00 23.5 23 Oeste 41 Noroeste 0 -- -- 66